BIENTÔT MET'MAP
version 2.0 !

Prévue avant fin octobre,
la nouvelle version sera
plus belle, plus complète
et hébergée sur un serveur
3 fois plus puissant...
et toujours gratuite !


Pas compatible ?
Essayez la version Mobile !

SE CONNECTER : | S'inscrire | Disclaimer | Découvrir Orbifly |
Code OACI :

TAF - LTAB Güvercinlik Airport - 31 May 2020 03:35 UTC - Data Source NOAA   


- Altitude de l'aérodrome : 2694 ft
- Pas de NOTAMs connus.


LTAB - Güvercinlik Airport

Dernier METAR connu : 2015/08/06 19:09 LTAB 061909Z 23009KT 200V270 9999 TS FEW025CB SCT035 BKN090 21/15 Q1014 RESHRA BECMG -TSRA RMK RWY06 24011KT
TAF TAF LTAB
Valide du 31 à 00h jusqu'au 31 à 09h UTC


302240Z 3100/3109 VRB02KT CAVOK
BECMG 3106/3108 SCT040 BKN100

Source NOAA


MET'MAP, la Météo Aéronautique d'un coup d'oeil ! - Copyright ORBIFLY Décembre 2007

Développement & Programmation : Alexandra Zaïnal
Co-Développement : Marc-Olivier Méhu
Soutien technique & logistique : Manuel Goepfert
Conception & Financement : Baudouin d'Aumeries